Purdue University Airport
KLAF : now visible

Airfield :











YOU CAN JOIN US ON...

 
LOGIN :

Register | Disclaimer

   EN    FR    IT 

 









Legend :    VFR   Marginal VFR   IFR   Intensive IFR   Very Intensive IFR
Visi :
Ceiling :
>= 8 km
>= 3000ft
5 to 8 km
1000 to 3000 ft
1500m to 5 km
500 to 1000 ft
800 to 1500m
200 to 500 ft
< 800m
< 200 ft
Symbols :   Thunderstorms  Fog  Heavy snow  Heavy precipitations  Wind > 20 kt






- Airport Elevation : 606 ft
- IATA code : LAF


KLAF - Purdue University

CURRENT METAR :
  • 211502Z 28005KT 10SM OVC010 11/08 A3022 RMK AO2 T01060083

EXPIRED METARs :
  • 211454Z 28006KT 10SM OVC009 11/08 A3023 RMK AO2 SLP235 T01060083 51029
  • 211354Z 29007KT 10SM OVC009 11/09 A3021 RMK AO2 SLP230 T01060089
  • 211254Z 31007KT 9SM OVC009 11/09 A3017 RMK AO2 CIG 007V011 SLP218 T01060094
  • 211237Z 31008G19KT 5SM BR OVC008 11/09 A3017 RMK AO2 CIG 007V011 T01110094

TAF KLAF
Valid from the 21 at 14:00 until the 22 at 12:00 UTC


211404Z 2114/2212 30007KT P6SM OVC009
FM211700 31005KT P6SM BKN015
FM220100 07005KT P6SM BKN029
FM220300 08005KT P6SM VCSH BKN020
FM220600 VRB04KT P6SM OVC014
FM220800 VRB04KT P6SM OVC009
KZAU FIR / North America



MET'MAP, your aeronautical weather chart ! - Copyright ORBIFLY December 2007 - Disclaimer

ORBIFLY MET'MAP TEAM :

Programming & Development : Alexandra Zaïnal
Concept & original design : Baudouin d'Aumeries
Assistance for programming : Marc-Olivier Méhu
Technical & hardware support : Manuel Goepfert

Contact : metmap@orbifly.com




SOURCES & CREDITS :

   NOAA       Earth
Advisory